createdAt,value
2023-05-19T00:02:09.671Z,5.07
2023-05-19T00:04:37.706Z,5.10
2023-05-19T00:07:06.041Z,6.07
2023-05-19T00:09:33.640Z,5.50
2023-05-19T00:12:02.679Z,5.55
2023-05-19T00:14:30.036Z,5.53
2023-05-19T00:17:04.846Z,5.95
2023-05-19T00:19:33.798Z,4.38
2023-05-19T00:22:03.932Z,4.93
2023-05-19T00:24:31.372Z,10.80
2023-05-19T00:26:59.411Z,7.75
2023-05-19T00:29:26.475Z,8.32
2023-05-19T00:31:53.281Z,5.78
2023-05-19T00:34:20.341Z,9.52
2023-05-19T00:36:47.498Z,4.10
2023-05-19T00:39:14.298Z,6.32
2023-05-19T00:41:41.464Z,9.07
2023-05-19T00:44:08.287Z,7.43
2023-05-19T00:46:35.163Z,7.38
2023-05-19T00:49:02.434Z,4.45
2023-05-19T00:51:37.993Z,6.70
2023-05-19T00:54:05.680Z,6.00
2023-05-19T01:00:30.385Z,7.82
2023-05-19T01:02:57.943Z,5.90
2023-05-19T01:05:24.959Z,7.40
2023-05-19T01:07:53.973Z,8.40
2023-05-19T01:10:21.178Z,5.22
2023-05-19T01:12:49.386Z,8.23
2023-05-19T01:15:17.796Z,9.27
2023-05-19T01:18:08.515Z,11.02
2023-05-19T01:21:11.609Z,6.72
2023-05-19T01:23:55.091Z,10.40
2023-05-19T01:26:59.816Z,12.57
2023-05-19T01:29:40.572Z,4.93
2023-05-19T01:32:09.766Z,6.68
2023-05-19T01:34:42.335Z,8.35
2023-05-19T01:37:09.963Z,5.32
2023-05-19T01:39:38.384Z,10.60
2023-05-19T01:42:06.627Z,6.30
2023-05-19T01:44:34.499Z,7.38
2023-05-19T01:47:02.392Z,5.97
2023-05-19T01:49:29.813Z,7.05
2023-05-19T01:51:57.576Z,12.15
2023-05-19T01:54:24.334Z,6.53
2023-05-19T01:56:51.008Z,5.72
2023-05-19T01:59:24.058Z,7.32
2023-05-19T02:01:57.299Z,5.72
2023-05-19T02:04:43.091Z,5.93
2023-05-19T02:07:31.004Z,6.07
2023-05-19T02:10:14.884Z,5.63
2023-05-19T02:12:44.411Z,5.75
2023-05-19T02:15:17.017Z,6.00
2023-05-19T02:17:51.791Z,6.90
2023-05-19T02:20:19.752Z,5.05
2023-05-19T02:22:46.580Z,7.68
2023-05-19T02:25:13.765Z,6.10
2023-05-19T02:27:41.319Z,6.13
2023-05-19T02:30:09.687Z,5.20
2023-05-19T02:32:36.978Z,7.32
2023-05-19T02:35:04.641Z,5.65
2023-05-19T02:37:32.570Z,7.93
2023-05-19T02:39:59.758Z,7.50
2023-05-19T02:42:26.499Z,8.10
2023-05-19T02:44:54.701Z,8.02
2023-05-19T02:47:21.867Z,6.18
2023-05-19T02:49:48.638Z,7.35
2023-05-19T02:52:15.942Z,4.70
2023-05-19T02:54:43.291Z,7.82
2023-05-19T02:57:11.530Z,5.90
2023-05-19T02:59:38.445Z,6.22
2023-05-19T03:02:05.761Z,5.47
2023-05-19T03:04:32.643Z,5.10
2023-05-19T03:06:59.603Z,6.25
2023-05-19T03:09:27.585Z,5.93
2023-05-19T03:11:54.813Z,10.13
2023-05-19T03:14:24.124Z,6.68
2023-05-19T03:16:51.500Z,7.32
2023-05-19T03:19:18.444Z,5.47
2023-05-19T03:21:45.754Z,8.75
2023-05-19T03:24:13.792Z,7.43
2023-05-19T03:26:43.052Z,4.15
2023-05-19T03:29:10.192Z,7.40
2023-05-19T03:31:38.298Z,5.10
2023-05-19T03:34:05.414Z,9.25
2023-05-19T03:36:32.569Z,7.82
2023-05-19T03:38:59.447Z,8.40
2023-05-19T03:41:27.670Z,4.47
2023-05-19T03:43:54.400Z,4.55
2023-05-19T03:46:21.557Z,9.43
2023-05-19T03:48:48.438Z,6.75
2023-05-19T03:51:16.024Z,6.40
2023-05-19T03:53:43.140Z,5.32
2023-05-19T03:56:13.625Z,7.43
2023-05-19T03:58:45.365Z,9.05
2023-05-19T04:01:12.128Z,7.00
2023-05-19T04:03:39.309Z,7.80
2023-05-19T04:06:08.042Z,5.93
2023-05-19T04:08:35.077Z,6.78
2023-05-19T04:11:02.395Z,8.30
2023-05-19T04:13:29.527Z,5.88
2023-05-19T04:15:56.737Z,5.95
2023-05-19T04:18:23.538Z,5.00
2023-05-19T04:20:51.203Z,5.60
2023-05-19T04:23:18.112Z,10.82
2023-05-19T04:25:45.354Z,6.70
2023-05-19T04:28:13.761Z,7.30
2023-05-19T04:30:42.995Z,5.60
2023-05-19T04:33:09.786Z,6.65
2023-05-19T04:35:38.427Z,10.93
2023-05-19T04:38:06.108Z,7.80
2023-05-19T04:40:32.962Z,5.30
2023-05-19T04:43:02.160Z,6.13
2023-05-19T04:45:29.606Z,5.90
2023-05-19T04:47:58.175Z,9.70
2023-05-19T04:50:25.851Z,6.45
2023-05-19T04:52:53.248Z,5.40
2023-05-19T04:55:23.419Z,5.45
2023-05-19T04:57:52.212Z,7.25
2023-05-19T05:00:19.691Z,5.65
2023-05-19T05:02:46.512Z,7.22
2023-05-19T05:05:13.431Z,7.20
2023-05-19T05:07:40.526Z,4.55
2023-05-19T05:10:11.482Z,5.97
2023-05-19T05:12:41.057Z,5.88
2023-05-19T05:15:09.739Z,6.50
2023-05-19T05:17:37.848Z,4.35
2023-05-19T05:20:07.051Z,7.20
2023-05-19T05:22:34.720Z,4.25
2023-05-19T05:25:02.538Z,3.50
2023-05-19T05:27:29.379Z,3.92
2023-05-19T05:29:58.019Z,15.88
2023-05-19T05:32:26.104Z,7.00
2023-05-19T05:34:53.369Z,3.85
2023-05-19T05:37:20.140Z,4.95
2023-05-19T05:39:47.447Z,7.00
2023-05-19T05:42:14.645Z,3.88
2023-05-19T05:44:41.794Z,6.70
2023-05-19T05:47:08.951Z,5.55
2023-05-19T05:49:38.507Z,11.32
2023-05-19T05:52:07.051Z,4.25
2023-05-19T05:54:34.624Z,5.57
2023-05-19T05:57:02.548Z,5.10
2023-05-19T05:59:29.749Z,6.65
2023-05-19T06:01:56.537Z,5.38
2023-05-19T06:04:23.784Z,5.72
2023-05-19T06:06:52.650Z,4.13
2023-05-19T06:09:19.438Z,4.85
2023-05-19T06:11:46.574Z,9.27
2023-05-19T06:14:13.839Z,4.20
2023-05-19T06:16:41.408Z,5.93
2023-05-19T06:19:08.612Z,5.32
2023-05-19T06:21:35.418Z,5.00
2023-05-19T06:24:02.178Z,8.23
2023-05-19T06:26:29.390Z,9.85
2023-05-19T06:28:56.322Z,4.85
2023-05-19T06:31:23.231Z,6.30
2023-05-19T06:33:49.970Z,9.65
2023-05-19T06:36:17.141Z,7.72
2023-05-19T06:38:44.472Z,6.20
2023-05-19T06:41:11.219Z,10.10
2023-05-19T06:43:38.352Z,6.38
2023-05-19T06:46:05.313Z,7.07
2023-05-19T06:48:32.154Z,6.60
2023-05-19T06:50:59.335Z,6.90
2023-05-19T06:53:26.154Z,9.82
2023-05-19T06:55:59.463Z,6.90
2023-05-19T06:58:27.605Z,6.90
2023-05-19T07:00:54.954Z,6.50
2023-05-19T07:03:22.176Z,7.80
2023-05-19T07:05:49.123Z,6.18
2023-05-19T07:08:16.250Z,7.53
2023-05-19T07:10:42.962Z,6.88
2023-05-19T07:13:09.738Z,4.35
2023-05-19T07:15:36.452Z,5.53
2023-05-19T07:18:03.785Z,7.15
2023-05-19T07:20:30.859Z,5.32
2023-05-19T07:22:58.201Z,4.63
2023-05-19T07:25:26.173Z,4.63
2023-05-19T07:27:53.024Z,5.35
2023-05-19T07:30:20.136Z,6.35
2023-05-19T07:32:46.940Z,4.90
2023-05-19T07:35:14.407Z,9.85
2023-05-19T07:37:41.569Z,5.32
2023-05-19T07:40:09.136Z,6.10
2023-05-19T07:42:35.979Z,5.38
2023-05-19T07:45:03.594Z,4.57
2023-05-19T07:47:30.856Z,5.60
2023-05-19T07:49:57.674Z,6.57
2023-05-19T07:52:24.861Z,5.05
2023-05-19T07:54:51.643Z,4.30
2023-05-19T07:57:19.453Z,6.18
2023-05-19T07:59:46.367Z,4.85
2023-05-19T08:02:13.466Z,4.20
2023-05-19T08:04:40.342Z,7.25
2023-05-19T08:07:11.495Z,10.98
2023-05-19T08:09:38.208Z,4.15
2023-05-19T08:12:05.651Z,9.43
2023-05-19T08:14:35.804Z,3.95
2023-05-19T08:17:02.520Z,4.25
2023-05-19T08:19:29.738Z,4.32
2023-05-19T08:21:57.538Z,5.38
2023-05-19T08:24:24.702Z,2.97
2023-05-19T08:26:51.490Z,3.92
2023-05-19T08:29:18.653Z,3.58
2023-05-19T08:31:45.663Z,5.00
2023-05-19T08:34:14.152Z,4.38
2023-05-19T08:36:41.915Z,4.10
2023-05-19T08:39:09.092Z,3.95
2023-05-19T08:41:35.903Z,4.80
2023-05-19T08:44:03.272Z,5.07
2023-05-19T08:46:30.418Z,5.75
2023-05-19T08:49:05.465Z,5.82
2023-05-19T08:51:55.328Z,6.70
2023-05-19T08:54:28.088Z,6.97
2023-05-19T08:56:55.511Z,4.97
2023-05-19T08:59:23.091Z,7.45
2023-05-19T09:01:50.628Z,10.38
2023-05-19T09:04:18.158Z,5.05
2023-05-19T09:06:45.793Z,5.75
2023-05-19T09:09:13.095Z,4.07
2023-05-19T09:11:39.921Z,5.38
2023-05-19T09:14:07.182Z,4.90
2023-05-19T09:16:34.513Z,3.80
2023-05-19T09:19:01.818Z,6.80
2023-05-19T09:21:32.836Z,3.40
2023-05-19T09:24:06.733Z,3.63
2023-05-19T09:26:41.917Z,7.40
2023-05-19T09:29:13.523Z,7.43
2023-05-19T09:31:41.090Z,4.67
2023-05-19T09:34:13.319Z,4.90
2023-05-19T09:36:42.227Z,4.95
2023-05-19T09:39:23.140Z,4.97
2023-05-19T09:41:54.974Z,5.72
2023-05-19T09:44:23.490Z,8.40
2023-05-19T09:46:54.062Z,4.00
2023-05-19T09:49:29.767Z,4.03
2023-05-19T09:51:58.454Z,7.53
2023-05-19T09:54:27.527Z,18.93
2023-05-19T09:56:59.644Z,2.80
2023-05-19T09:59:30.529Z,3.67
2023-05-19T10:02:00.168Z,4.83
2023-05-19T10:04:29.368Z,3.40
2023-05-19T10:07:00.235Z,4.20
2023-05-19T10:09:28.779Z,4.80
2023-05-19T10:12:00.275Z,6.00
2023-05-19T10:14:28.792Z,5.67
2023-05-19T10:16:59.148Z,8.07
2023-05-19T10:19:27.959Z,9.17
2023-05-19T10:21:55.628Z,14.10
2023-05-19T10:24:22.814Z,7.33
2023-05-19T10:27:01.808Z,8.10
2023-05-19T10:29:33.653Z,6.97
2023-05-19T10:32:11.559Z,11.38
2023-05-19T10:34:58.316Z,6.28
2023-05-19T10:37:33.658Z,6.70
2023-05-19T10:40:05.048Z,11.18
2023-05-19T10:42:45.118Z,6.28
2023-05-19T10:45:22.843Z,5.63
2023-05-19T10:47:54.980Z,18.67
2023-05-19T10:50:23.184Z,10.20
2023-05-19T10:52:56.148Z,13.03
2023-05-19T10:55:46.673Z,5.50
2023-05-19T10:58:13.841Z,6.53
2023-05-19T11:00:43.486Z,6.30
2023-05-19T11:03:16.801Z,8.98
2023-05-19T11:05:52.341Z,6.20
2023-05-19T11:08:32.911Z,10.00
2023-05-19T11:11:14.918Z,5.45
2023-05-19T11:13:47.209Z,6.60
2023-05-19T11:16:16.142Z,9.73
2023-05-19T11:18:47.532Z,5.85
2023-05-19T11:21:14.727Z,7.05
2023-05-19T11:23:41.861Z,6.85
2023-05-19T11:26:09.635Z,7.22
2023-05-19T11:28:37.345Z,9.13
2023-05-19T11:31:08.014Z,10.32
2023-05-19T11:33:34.966Z,10.05
2023-05-19T11:36:03.032Z,6.68
2023-05-19T11:38:32.868Z,7.63
2023-05-19T11:41:01.336Z,7.65
2023-05-19T11:43:28.061Z,7.03
2023-05-19T11:45:56.905Z,9.02
2023-05-19T11:48:26.709Z,8.25
2023-05-19T11:50:53.711Z,7.22
2023-05-19T11:53:22.021Z,7.57
2023-05-19T11:55:49.625Z,8.52
2023-05-19T11:58:17.671Z,6.03
2023-05-19T12:00:47.930Z,7.97
2023-05-19T12:03:15.145Z,6.15
2023-05-19T12:05:46.019Z,7.15
2023-05-19T12:08:14.024Z,8.73
2023-05-19T12:10:41.212Z,6.53
2023-05-19T12:13:09.581Z,7.90
2023-05-19T12:15:37.457Z,10.80
2023-05-19T12:18:07.226Z,7.85
2023-05-19T12:20:36.683Z,7.70
2023-05-19T12:23:04.289Z,10.20
2023-05-19T12:25:33.600Z,11.50
2023-05-19T12:28:08.656Z,9.05
2023-05-19T12:30:35.907Z,9.25
2023-05-19T12:33:03.926Z,8.18
2023-05-19T12:35:36.183Z,8.75
2023-05-19T12:38:14.791Z,12.10
2023-05-19T12:40:42.849Z,8.18
2023-05-19T12:43:19.967Z,8.93
2023-05-19T12:45:46.824Z,7.45
2023-05-19T12:48:16.483Z,8.20
2023-05-19T12:50:45.415Z,7.28
2023-05-19T12:53:13.386Z,8.80
2023-05-19T12:55:45.228Z,7.93
2023-05-19T12:58:13.173Z,10.63
2023-05-19T13:00:50.094Z,12.93
2023-05-19T13:03:20.776Z,10.80
2023-05-19T13:05:50.867Z,12.50
2023-05-19T13:08:21.490Z,10.60
2023-05-19T13:10:49.826Z,12.65
2023-05-19T13:13:19.400Z,20.38
2023-05-19T13:15:48.890Z,17.83
2023-05-19T13:18:17.054Z,13.80
2023-05-19T13:20:45.589Z,13.00
2023-05-19T13:23:13.122Z,13.35
2023-05-19T13:25:41.678Z,12.63
2023-05-19T13:28:09.326Z,17.10
2023-05-19T13:30:38.203Z,15.68
2023-05-19T13:33:06.494Z,13.73
2023-05-19T13:35:39.328Z,15.40
2023-05-19T13:38:08.331Z,14.57
2023-05-19T13:40:35.465Z,12.05
2023-05-19T13:43:03.531Z,16.52
2023-05-19T13:45:30.417Z,18.02
2023-05-19T13:47:57.663Z,13.35
2023-05-19T13:50:24.683Z,14.65
2023-05-19T13:52:53.224Z,13.10
2023-05-19T13:55:20.530Z,16.83
2023-05-19T13:57:47.280Z,20.13
2023-05-19T14:00:14.944Z,16.33
2023-05-19T14:02:42.455Z,13.95
2023-05-19T14:05:09.766Z,13.43
2023-05-19T14:07:38.635Z,16.58
2023-05-19T14:10:07.146Z,17.70
2023-05-19T14:12:49.447Z,15.00
2023-05-19T14:15:22.739Z,16.20
2023-05-19T14:17:50.030Z,15.37
2023-05-19T14:20:16.845Z,14.93
2023-05-19T14:22:44.323Z,13.27
2023-05-19T14:25:12.444Z,14.03
2023-05-19T14:27:42.668Z,13.47
2023-05-19T14:30:10.100Z,17.00
2023-05-19T14:32:38.426Z,16.33
2023-05-19T14:35:06.038Z,15.73
2023-05-19T14:37:33.139Z,13.83
2023-05-19T14:40:01.500Z,12.50
2023-05-19T14:42:29.792Z,15.43
2023-05-19T14:44:57.142Z,16.10
2023-05-19T14:47:27.389Z,13.15
2023-05-19T14:49:54.834Z,13.20
2023-05-19T14:52:22.755Z,15.82
2023-05-19T14:54:49.591Z,15.13
2023-05-19T14:57:16.773Z,14.07
2023-05-19T14:59:44.820Z,17.65
2023-05-19T15:02:12.673Z,17.58
2023-05-19T15:04:39.437Z,18.92
2023-05-19T15:07:10.192Z,15.63
2023-05-19T15:09:37.897Z,16.95
2023-05-19T15:12:04.906Z,18.73
2023-05-19T15:14:32.156Z,14.60
2023-05-19T15:16:59.272Z,19.27
2023-05-19T15:19:26.456Z,14.93
2023-05-19T15:21:53.417Z,16.30
2023-05-19T15:24:20.203Z,20.30
2023-05-19T15:26:47.678Z,16.90
2023-05-19T15:29:14.774Z,19.80
2023-05-19T15:31:41.769Z,21.90
2023-05-19T15:34:09.274Z,19.70
2023-05-19T15:36:36.039Z,21.80
2023-05-19T15:39:04.093Z,20.00
2023-05-19T15:41:31.290Z,18.37
2023-05-19T15:44:00.701Z,17.90
2023-05-19T15:46:28.519Z,21.83
2023-05-19T15:48:57.890Z,18.60
2023-05-19T15:51:25.835Z,17.40
2023-05-19T15:53:53.308Z,20.80
2023-05-19T15:56:20.038Z,18.47
2023-05-19T15:58:47.223Z,19.07
2023-05-19T16:01:17.819Z,18.77
2023-05-19T16:03:45.670Z,20.15
2023-05-19T16:06:13.128Z,26.30
2023-05-19T16:08:40.537Z,21.03
2023-05-19T16:11:07.407Z,19.50
2023-05-19T16:13:34.791Z,18.20
2023-05-19T16:16:02.184Z,18.80
2023-05-19T16:18:29.737Z,17.03
2023-05-19T16:20:56.629Z,18.38
2023-05-19T16:23:25.109Z,19.53
2023-05-19T16:25:52.732Z,15.63
2023-05-19T16:28:20.577Z,18.33
2023-05-19T16:30:50.100Z,16.55
2023-05-19T16:33:16.863Z,16.33
2023-05-19T16:35:46.360Z,14.93
2023-05-19T16:38:13.157Z,16.45
2023-05-19T16:40:40.344Z,16.70
2023-05-19T16:43:07.100Z,26.13
2023-05-19T16:45:34.228Z,15.45
2023-05-19T16:48:01.384Z,16.73
2023-05-19T16:50:30.942Z,17.83
2023-05-19T16:52:57.807Z,18.67
2023-05-19T16:55:27.107Z,13.50
2023-05-19T16:57:53.913Z,15.00
2023-05-19T17:00:21.811Z,17.15
2023-05-19T17:02:48.614Z,15.85
2023-05-19T17:05:15.996Z,17.98
2023-05-19T17:07:42.729Z,11.68
2023-05-19T17:10:10.001Z,15.32
2023-05-19T17:12:36.968Z,18.83
2023-05-19T17:15:04.829Z,20.48
2023-05-19T17:17:31.710Z,14.13
2023-05-19T17:19:58.914Z,15.00
2023-05-19T17:22:30.277Z,14.23
2023-05-19T17:24:58.557Z,17.17
2023-05-19T17:27:25.441Z,18.90
2023-05-19T17:29:52.822Z,19.50
2023-05-19T17:32:23.416Z,14.20
2023-05-19T17:34:50.365Z,12.85
2023-05-19T17:37:19.153Z,15.27
2023-05-19T17:39:45.919Z,16.25
2023-05-19T17:42:12.680Z,12.73
2023-05-19T17:44:39.519Z,13.20
2023-05-19T17:47:08.507Z,12.40
2023-05-19T17:49:35.699Z,14.07
2023-05-19T17:52:02.798Z,14.25
2023-05-19T17:54:29.996Z,11.38
2023-05-19T17:56:58.610Z,13.88
2023-05-19T17:59:26.260Z,17.20
2023-05-19T18:01:53.632Z,14.00
2023-05-19T18:04:22.798Z,16.88
2023-05-19T18:06:52.842Z,18.80
2023-05-19T18:09:20.569Z,17.10
2023-05-19T18:11:47.674Z,18.52
2023-05-19T18:14:22.247Z,17.08
2023-05-19T18:16:52.236Z,19.33
2023-05-19T18:19:19.154Z,18.10
2023-05-19T18:21:46.034Z,17.42
2023-05-19T18:24:12.862Z,15.15
2023-05-19T18:26:42.377Z,15.85
2023-05-19T18:29:10.234Z,16.25
2023-05-19T18:31:44.203Z,16.10
2023-05-19T18:34:11.100Z,15.88
2023-05-19T18:36:39.268Z,17.38
2023-05-19T18:39:06.048Z,18.88
2023-05-19T18:41:32.909Z,19.40
2023-05-19T18:44:00.153Z,18.00
2023-05-19T18:46:26.979Z,15.20
2023-05-19T18:48:55.100Z,15.73
2023-05-19T18:51:22.428Z,18.42
2023-05-19T18:53:50.193Z,15.13
2023-05-19T18:56:27.285Z,20.30
2023-05-19T18:58:57.715Z,18.00
2023-05-19T19:01:24.797Z,16.75
2023-05-19T19:03:52.610Z,16.13
2023-05-19T19:06:26.330Z,15.75
2023-05-19T19:08:54.390Z,16.83
2023-05-19T19:11:27.655Z,17.48
2023-05-19T19:13:56.715Z,16.30
2023-05-19T19:16:23.866Z,18.55
2023-05-19T19:18:53.919Z,18.80
2023-05-19T19:21:24.122Z,18.80
2023-05-19T19:23:56.069Z,14.57
2023-05-19T19:26:27.079Z,17.98
2023-05-19T19:28:55.781Z,17.77
2023-05-19T19:31:22.969Z,16.58
2023-05-19T19:33:49.992Z,21.33
2023-05-19T19:36:22.851Z,16.42
2023-05-19T19:38:49.845Z,19.30
2023-05-19T19:41:19.827Z,18.40
2023-05-19T19:43:46.633Z,21.48
2023-05-19T19:46:13.891Z,20.95
2023-05-19T19:48:40.957Z,18.95
2023-05-19T19:51:10.993Z,22.50
2023-05-19T19:53:39.115Z,20.40
2023-05-19T19:56:08.137Z,18.90
2023-05-19T19:58:36.562Z,18.33
2023-05-19T20:01:04.589Z,19.48
2023-05-19T20:03:33.618Z,20.15
2023-05-19T20:06:01.074Z,22.70
2023-05-19T20:08:29.894Z,21.00
2023-05-19T20:10:56.714Z,19.25
2023-05-19T20:13:23.929Z,19.85
2023-05-19T20:15:51.125Z,19.30
2023-05-19T20:18:19.308Z,19.38
2023-05-19T20:20:46.548Z,18.67
2023-05-19T20:23:13.549Z,21.35
2023-05-19T20:25:53.634Z,19.77
2023-05-19T20:28:29.711Z,25.70
2023-05-19T20:30:57.732Z,22.50
2023-05-19T20:33:24.489Z,24.15
2023-05-19T20:35:51.512Z,20.27
2023-05-19T20:38:18.833Z,23.50
2023-05-19T20:40:50.081Z,19.58
2023-05-19T20:43:17.766Z,21.70
2023-05-19T20:45:45.192Z,26.75
2023-05-19T20:48:12.616Z,19.45
2023-05-19T20:50:42.964Z,22.75
2023-05-19T20:53:10.625Z,18.88
2023-05-19T20:55:39.089Z,20.25
2023-05-19T20:58:06.173Z,23.38
2023-05-19T21:00:33.516Z,20.50
2023-05-19T21:03:01.365Z,23.10
2023-05-19T21:05:28.460Z,24.13
2023-05-19T21:07:59.810Z,20.73
2023-05-19T21:10:27.026Z,21.13
2023-05-19T21:12:54.519Z,22.05
2023-05-19T21:15:23.094Z,25.98
2023-05-19T21:17:54.921Z,18.50
2023-05-19T21:20:21.869Z,22.73
2023-05-19T21:22:49.005Z,21.60
2023-05-19T21:25:17.097Z,21.92
2023-05-19T21:27:46.325Z,22.35
2023-05-19T21:30:14.380Z,26.90
2023-05-19T21:32:41.695Z,20.27
2023-05-19T21:35:09.571Z,24.00
2023-05-19T21:37:40.403Z,21.20
2023-05-19T21:40:09.916Z,25.10
2023-05-19T21:42:36.750Z,27.10
2023-05-19T21:45:03.914Z,25.08
2023-05-19T21:47:30.772Z,28.25
2023-05-19T21:49:57.955Z,23.08
2023-05-19T21:52:25.983Z,25.50
2023-05-19T21:54:54.353Z,22.17
2023-05-19T21:57:21.083Z,23.70
2023-05-19T21:59:48.237Z,30.05
2023-05-19T22:02:15.618Z,26.77
2023-05-19T22:04:43.462Z,25.45
2023-05-19T22:07:10.196Z,27.33
2023-05-19T22:09:38.356Z,25.67
2023-05-19T22:12:06.500Z,28.52
2023-05-19T22:14:35.457Z,30.73
2023-05-19T22:17:02.227Z,28.58
2023-05-19T22:19:29.460Z,27.65
2023-05-19T22:22:09.858Z,25.65
2023-05-19T22:24:42.031Z,24.45
2023-05-19T22:27:09.054Z,27.92
2023-05-19T22:29:39.089Z,26.25
2023-05-19T22:32:08.129Z,29.50
2023-05-19T22:34:37.743Z,29.23
2023-05-19T22:37:05.722Z,22.25
2023-05-19T22:39:33.000Z,30.10
2023-05-19T22:42:00.138Z,25.08
2023-05-19T22:44:26.963Z,30.10
2023-05-19T22:46:53.735Z,26.15
2023-05-19T22:49:23.544Z,26.05
2023-05-19T22:51:50.508Z,31.58
2023-05-19T22:54:17.583Z,29.92
2023-05-19T22:56:46.388Z,29.17
2023-05-19T22:59:13.740Z,30.02
2023-05-19T23:01:40.736Z,27.80
2023-05-19T23:04:07.548Z,31.65
2023-05-19T23:06:34.696Z,30.73
2023-05-19T23:09:03.625Z,35.35
2023-05-19T23:11:32.145Z,23.85
2023-05-19T23:13:59.237Z,28.40
2023-05-19T23:16:26.103Z,25.25
2023-05-19T23:18:52.958Z,26.95
2023-05-19T23:21:19.876Z,20.60
2023-05-19T23:23:48.274Z,24.83
2023-05-19T23:26:17.538Z,29.23
2023-05-19T23:28:44.943Z,25.05
2023-05-19T23:31:14.602Z,22.08
2023-05-19T23:33:48.487Z,21.38
2023-05-19T23:36:18.330Z,18.13
2023-05-19T23:38:46.291Z,19.73
2023-05-19T23:41:17.518Z,21.73
2023-05-19T23:43:45.292Z,24.27
2023-05-19T23:46:12.243Z,22.02
2023-05-19T23:48:41.963Z,22.55
2023-05-19T23:51:08.759Z,21.77
2023-05-19T23:53:37.787Z,28.63
2023-05-19T23:56:04.979Z,19.10
2023-05-19T23:58:33.132Z,19.50
